Time;durP1;ratioP1;P1;durP2;ratioP2;P2;SDS_P1;SDS_P2;PMS_P1;PMS_P2;Temp;Humidity;BMP_temperature;BMP_pressure;BME280_temperature;BME280_humidity;BME280_pressure;Samples;Min_cycle;Max_cycle;Signal;HPM_P1;HPM_P2
2022/11/03 00:02:32;;;;;;;;;;;;;;;;;;;;;
2022/11/03 00:16:09;;;;;;;24.65;4.53;;;;;;;12.69;100.00;101137.41;6180545;23;20055;-87
2022/11/03 00:26:30;;;;;;;28.23;4.85;;;;;;;12.61;100.00;101113.09;5882414;24;20018;-87
2022/11/03 00:29:36;;;;;;;23.90;4.90;;;;;;;12.82;100.00;101112.72;5909501;23;20023;-87
2022/11/03 00:32:36;;;;;;;;;;;;;;;;;;;;;
2022/11/03 00:45:49;;;;;;;30.27;4.60;;;;;;;12.93;100.00;101085.75;5938387;23;20053;-87
2022/11/03 01:27:59;;;;;;;23.60;4.97;;;;;;;13.03;100.00;101045.97;6030099;23;20026;-87
2022/11/03 01:31:12;;;;;;;24.88;4.38;;;;;;;13.06;100.00;101039.19;6059205;23;20034;-87
2022/11/03 01:37:47;;;;;;;15.30;3.60;;;;;;;13.08;100.00;101031.63;6211048;23;20035;-87
2022/11/03 01:41:26;;;;;;;28.10;3.97;;;;;;;13.13;100.00;101028.22;6219715;23;20012;-86
2022/11/03 01:59:36;;;;;;;25.60;4.45;;;;;;;13.13;100.00;100998.97;6061419;23;20041;-87
2022/11/03 02:06:15;;;;;;;25.40;5.28;;;;;;;13.30;100.00;101003.91;6004856;23;20028;-87
2022/11/03 02:12:39;;;;;;;25.85;4.35;;;;;;;13.46;100.00;100992.38;5933429;24;20177;-87
2022/11/03 02:48:05;;;;;;;;;;;;;;;;;;;;;
2022/11/03 03:08:46;;;;;;;19.45;3.63;;;;;;;13.22;100.00;100907.47;6151354;23;20111;-89
2022/11/03 03:11:44;;;;;;;30.67;4.65;;;;;;;13.65;100.00;100908.44;6202389;23;20055;-87
2022/11/03 03:14:50;;;;;;;21.42;4.65;;;;;;;13.51;100.00;100902.28;6178296;23;20401;-89
2022/11/03 03:21:47;;;;;;;23.25;3.65;;;;;;;13.02;100.00;100898.69;6186956;23;20173;-88
2022/11/03 03:24:49;;;;;;;20.35;4.70;;;;;;;13.26;100.00;100889.56;6218014;23;20009;-87
2022/11/03 03:27:47;;;;;;;27.60;4.30;;;;;;;13.17;100.00;100885.47;6086738;23;20109;-88
2022/11/03 03:41:12;;;;;;;;;;;;;;;;;;;;;
2022/11/03 03:48:26;;;;;;;21.33;4.15;;;;;;;13.37;100.00;100857.09;6134436;23;20033;-87
2022/11/03 03:55:12;;;;;;;20.77;4.47;;;;;;;12.91;100.00;100858.47;6018501;23;20114;-88
2022/11/03 04:04:58;;;;;;;;;;;;;;;;;;;;;
2022/11/03 04:08:13;;;;;;;21.35;4.38;;;;;;;12.85;100.00;100839.19;6066645;23;20090;-87
2022/11/03 04:31:46;;;;;;;19.00;4.18;;;;;;;12.85;100.00;100821.97;5954682;23;20465;-87
2022/11/03 04:51:02;;;;;;;22.38;4.47;;;;;;;12.73;100.00;100805.56;5965634;24;20028;-87
2022/11/03 04:57:41;;;;;;;;;;;;;;;;;;;;;
2022/11/03 05:00:47;;;;;;;16.58;4.18;;;;;;;12.81;100.00;100788.00;5975652;23;20022;-88
2022/11/03 05:11:15;;;;;;;16.25;4.00;;;;;;;12.90;100.00;100785.78;6179953;23;20028;-87
2022/11/03 05:14:28;;;;;;;24.35;3.80;;;;;;;12.87;100.00;100764.41;6126090;23;20093;-87
2022/11/03 05:20:37;;;;;;;20.00;3.20;;;;;;;12.73;100.00;100761.88;6181522;23;20041;-88
2022/11/03 05:23:41;;;;;;;18.45;3.92;;;;;;;12.80;100.00;100764.50;6219948;23;20013;-87
2022/11/03 05:30:02;;;;;;;19.33;4.13;;;;;;;12.87;100.00;100743.41;6183913;23;20024;-87
2022/11/03 05:32:57;;;;;;;19.13;3.10;;;;;;;13.08;100.00;100739.34;6219359;23;20470;-87
2022/11/03 05:39:00;;;;;;;25.05;4.05;;;;;;;13.04;100.00;100729.94;6219067;23;20024;-87
2022/11/03 05:42:04;;;;;;;;;;;;;;;;;;;;;
2022/11/03 05:44:57;;;;;;;;;;;;;;;;;;;;;
2022/11/03 05:57:58;;;;;;;17.50;3.60;;;;;;;13.20;100.00;100715.63;6081287;23;20365;-87
2022/11/03 06:13:37;;;;;;;15.98;3.95;;;;;;;13.09;100.00;100713.69;6123480;23;20362;-87
2022/11/03 06:19:50;;;;;;;14.48;3.60;;;;;;;13.20;100.00;100692.94;6078143;23;20050;-88
2022/11/03 06:23:02;;;;;;;;;;;;;;;;;;;;;
2022/11/03 06:33:03;;;;;;;14.82;3.90;;;;;;;13.22;100.00;100669.78;6071778;23;20030;-89
2022/11/03 06:46:14;;;;;;;25.90;4.60;;;;;;;13.07;100.00;100655.72;6135490;23;20021;-86
2022/11/03 06:52:37;;;;;;;24.27;4.30;;;;;;;13.21;100.00;100659.91;6179802;23;20078;-88
2022/11/03 06:58:59;;;;;;;17.35;4.38;;;;;;;13.16;100.00;100661.69;6215796;23;20394;-88
2022/11/03 07:12:21;;;;;;;20.83;3.83;;;;;;;13.16;100.00;100665.25;6126281;23;20033;-88
2022/11/03 07:15:32;;;;;;;;;;;;;;;;;;;;;
2022/11/03 07:30:04;;;;;;;24.02;4.97;;;;;;;13.42;100.00;100663.19;6075590;23;20018;-88
2022/11/03 07:33:00;;;;;;;15.52;3.92;;;;;;;13.39;100.00;100645.34;6114493;23;20140;-90
2022/11/03 07:36:16;;;;;;;;;;;;;;;;;;;;;
2022/11/03 07:39:27;;;;;;;;;;;;;;;;;;;;;
2022/11/03 07:43:03;;;;;;;16.42;4.13;;;;;;;13.75;100.00;100637.13;6190670;23;20078;-88
2022/11/03 07:46:04;;;;;;;19.73;4.68;;;;;;;13.54;100.00;100649.53;6220618;23;20020;-88
2022/11/03 07:52:40;;;;;;;23.98;4.93;;;;;;;13.50;100.00;100638.22;6205312;23;20023;-89
2022/11/03 07:58:40;;;;;;;19.55;4.28;;;;;;;13.55;100.00;100652.00;6014078;23;20048;-87
2022/11/03 08:02:01;;;;;;;17.90;4.00;;;;;;;13.59;100.00;100634.06;6032702;23;20489;-86
2022/11/03 08:20:20;;;;;;;19.95;4.25;;;;;;;13.92;100.00;100624.41;6129726;23;20030;-88
2022/11/03 08:22:49;;;;;;;16.95;4.55;;;;;;;13.99;100.00;100614.16;6218789;23;20024;-87
2022/11/03 08:25:57;;;;;;;22.60;4.60;;;;;;;14.20;100.00;100617.31;6219278;23;20017;-86
2022/11/03 08:32:38;;;;;;;23.23;4.53;;;;;;;14.09;100.00;100608.09;6165316;23;20030;-86
2022/11/03 08:42:02;;;;;;;20.83;4.47;;;;;;;14.33;100.00;100575.97;6056176;23;20022;-87
2022/11/03 08:45:03;;;;;;;18.13;3.67;;;;;;;14.29;100.00;100572.06;6207838;23;20471;-88
2022/11/03 08:47:59;;;;;;;19.63;4.07;;;;;;;14.16;100.00;100561.44;6216309;23;20222;-87
2022/11/03 08:51:02;;;;;;;16.75;3.90;;;;;;;14.45;100.00;100543.91;6209062;23;20024;-86
2022/11/03 08:57:25;;;;;;;;;;;;;;;;;;;;;
2022/11/03 09:00:27;;;;;;;18.15;4.00;;;;;;;14.46;100.00;100531.88;6217845;23;20048;-88
2022/11/03 09:03:40;;;;;;;22.33;3.90;;;;;;;14.37;100.00;100525.16;6207995;23;20046;-87
2022/11/03 09:14:00;;;;;;;14.45;3.40;;;;;;;14.68;100.00;100490.97;6139157;23;20030;-87
2022/11/03 09:27:51;;;;;;;;;;;;;;;;;;;;;
2022/11/03 09:31:28;;;;;;;27.90;5.30;;;;;;;14.58;100.00;100446.97;6098526;23;20109;-88
2022/11/03 09:38:41;;;;;;;20.52;4.35;;;;;;;14.73;100.00;100438.16;6199628;23;20063;-87
2022/11/03 09:41:53;;;;;;;18.40;4.20;;;;;;;14.78;100.00;100419.06;6198566;23;20025;-87
2022/11/03 09:44:49;;;;;;;22.88;4.55;;;;;;;14.98;100.00;100420.44;6182417;23;20067;-87
2022/11/03 09:58:47;;;;;;;17.50;4.65;;;;;;;14.99;100.00;100394.72;6105661;23;20029;-86
2022/11/03 10:08:53;;;;;;;19.35;5.10;;;;;;;15.23;100.00;100382.41;5971042;24;20024;-88
2022/11/03 10:15:47;;;;;;;;;;;;;;;;;;;;;
2022/11/03 10:19:17;;;;;;;16.30;3.78;;;;;;;15.11;100.00;100357.06;6076479;23;20023;-87
2022/11/03 10:33:02;;;;;;;18.52;3.85;;;;;;;15.16;100.00;100337.94;5960964;23;20575;-86
2022/11/03 10:36:00;;;;;;;18.02;3.90;;;;;;;15.05;100.00;100345.19;6126461;23;20472;-87
2022/11/03 10:42:41;;;;;;;16.30;4.03;;;;;;;15.14;100.00;100331.06;6058672;23;20018;-86
2022/11/03 10:45:58;;;;;;;21.25;4.43;;;;;;;15.25;100.00;100317.19;6096007;23;20023;-86
2022/11/03 10:49:14;;;;;;;13.52;3.60;;;;;;;15.16;100.00;100307.78;6155794;23;20044;-87
2022/11/03 10:55:51;;;;;;;18.02;3.88;;;;;;;15.12;100.00;100287.47;6099192;23;20408;-87
2022/11/03 10:58:52;;;;;;;14.43;4.15;;;;;;;15.31;100.00;100281.63;6193915;23;20048;-86
2022/11/03 11:04:40;;;;;;;15.95;3.70;;;;;;;15.43;100.00;100265.88;6203921;23;20020;-85
2022/11/03 11:07:40;;;;;;;16.27;3.75;;;;;;;15.31;100.00;100265.19;6126622;23;20018;-86
2022/11/03 11:10:53;;;;;;;18.88;3.55;;;;;;;15.47;100.00;100256.88;6218539;23;20023;-86
2022/11/03 11:17:07;;;;;;;;;;;;;;;;;;;;;
2022/11/03 11:20:29;;;;;;;11.30;3.17;;;;;;;15.39;100.00;100264.72;6030810;23;20174;-86
2022/11/03 11:23:51;;;;;;;12.48;2.75;;;;;;;15.85;100.00;100262.41;6181655;23;20023;-87
2022/11/03 11:30:06;;;;;;;18.08;3.70;;;;;;;15.75;100.00;100259.59;6218115;23;20027;-88
2022/11/03 11:32:57;;;;;;;11.63;2.78;;;;;;;15.92;100.00;100246.56;6182344;23;20024;-88
2022/11/03 11:36:09;;;;;;;12.88;3.25;;;;;;;16.19;100.00;100245.63;6182681;23;20020;-88
2022/11/03 11:38:57;;;;;;;18.25;3.40;;;;;;;15.88;100.00;100235.28;6218128;23;20016;-86
2022/11/03 11:42:05;;;;;;;11.73;3.00;;;;;;;15.90;100.00;100226.78;6220231;23;20024;-89
2022/11/03 11:45:08;;;;;;;27.23;4.43;;;;;;;15.97;100.00;100232.06;6216823;23;20008;-89
2022/11/03 11:47:48;;;;;;;13.80;3.63;;;;;;;16.04;100.00;100219.72;6181490;23;20023;-89
2022/11/03 11:50:33;;;;;;;14.07;2.97;;;;;;;15.94;100.00;100207.88;6218517;23;20017;-88
2022/11/03 11:53:21;;;;;;;21.17;3.22;;;;;;;15.92;100.00;100191.69;6220335;23;20008;-89
2022/11/03 11:55:57;;;;;;;15.85;3.25;;;;;;;16.11;100.00;100197.56;6218878;23;20071;-88
2022/11/03 11:58:38;;;;;;;11.70;3.15;;;;;;;16.19;100.00;100191.56;6181686;23;20091;-88
2022/11/03 12:01:23;;;;;;;19.00;4.03;;;;;;;15.97;100.00;100175.25;6181316;23;20020;-88
2022/11/03 12:03:54;;;;;;;14.52;3.67;;;;;;;15.93;100.00;100168.63;6181978;23;20059;-86
2022/11/03 12:06:34;;;;;;;14.18;4.47;;;;;;;16.26;100.00;100163.88;6182088;23;20032;-86
2022/11/03 12:09:17;;;;;;;11.45;3.60;;;;;;;16.28;100.00;100156.22;6219255;23;20100;-86
2022/11/03 12:11:48;;;;;;;19.42;3.78;;;;;;;16.22;100.00;100152.59;6218159;23;20047;-85
2022/11/03 12:14:32;;;;;;;15.52;3.47;;;;;;;16.23;100.00;100140.50;6218955;23;20091;-86
2022/11/03 12:17:35;;;;;;;23.63;4.00;;;;;;;16.01;100.00;100137.97;6179106;23;20051;-86
2022/11/03 12:20:48;;;;;;;15.68;3.13;;;;;;;16.18;100.00;100125.97;6217788;23;20017;-86
2022/11/03 12:23:39;;;;;;;16.20;3.63;;;;;;;16.45;100.00;100115.63;6218372;23;20443;-86
2022/11/03 12:26:16;;;;;;;15.80;3.28;;;;;;;16.43;100.00;100108.75;6217877;23;20016;-86
2022/11/03 12:28:49;;;;;;;11.15;2.85;;;;;;;16.54;100.00;100104.94;6216289;23;20032;-86
2022/11/03 12:31:18;;;;;;;;;;;;;;;16.36;100.00;100108.19;6182273;23;20427;-86
2022/11/03 12:33:55;;;;;;;13.80;3.65;;;;;;;16.62;100.00;100095.38;6182288;23;20314;-86
2022/11/03 12:36:36;;;;;;;13.82;3.10;;;;;;;16.46;100.00;100102.72;6181277;23;20031;-87
2022/11/03 12:39:10;;;;;;;19.05;3.28;;;;;;;16.48;100.00;100089.53;6178665;23;20017;-87
2022/11/03 12:41:40;;;;;;;10.35;3.03;;;;;;;16.81;100.00;100099.25;6215971;23;20103;-87
2022/11/03 12:44:14;;;;;;;16.27;3.20;;;;;;;16.98;100.00;100088.00;6181469;23;20017;-86
2022/11/03 12:47:08;;;;;;;12.85;3.03;;;;;;;16.80;100.00;100078.38;6181451;23;20075;-86
2022/11/03 12:49:53;;;;;;;13.70;3.13;;;;;;;16.74;100.00;100076.69;6181884;23;20477;-87
2022/11/03 12:52:26;;;;;;;12.25;3.22;;;;;;;16.74;100.00;100071.19;6218850;23;20028;-88
2022/11/03 12:54:58;;;;;;;13.88;3.60;;;;;;;17.06;100.00;100068.19;6216226;23;20294;-87
2022/11/03 12:57:27;;;;;;;12.88;3.05;;;;;;;17.44;100.00;100065.97;6219636;23;20095;-86
2022/11/03 12:59:57;;;;;;;14.55;2.97;;;;;;;17.25;100.00;100062.16;6213372;23;20016;-87
2022/11/03 13:02:33;;;;;;;11.23;2.70;;;;;;;17.68;100.00;100057.94;6218491;23;20019;-87
2022/11/03 13:05:07;;;;;;;15.82;3.70;;;;;;;17.29;100.00;100050.31;6219142;23;20021;-87
2022/11/03 13:07:53;;;;;;;10.25;3.25;;;;;;;17.18;100.00;100032.19;6215171;23;20012;-87
2022/11/03 13:10:22;;;;;;;16.45;2.72;;;;;;;16.89;100.00;100035.53;6207180;23;20025;-86
2022/11/03 13:13:01;;;;;;;13.55;3.33;;;;;;;16.92;100.00;100034.97;6183041;23;20401;-87
2022/11/03 13:15:38;;;;;;;9.82;3.35;;;;;;;16.73;100.00;100020.09;6217688;23;20017;-87
2022/11/03 13:18:37;;;;;;;11.10;2.72;;;;;;;17.01;100.00;100009.69;6182860;23;20024;-86
2022/11/03 13:21:12;;;;;;;12.57;2.90;;;;;;;16.89;100.00;100010.78;6218367;23;20027;-87
2022/11/03 13:24:12;;;;;;;;;;;;;;;;;;;;;
2022/11/03 13:26:47;;;;;;;12.50;2.20;;;;;;;16.86;100.00;100000.34;6199186;23;20023;-87
2022/11/03 13:29:21;;;;;;;15.27;2.97;;;;;;;16.70;100.00;99995.91;6218568;23;20405;-86
2022/11/03 13:31:57;;;;;;;10.13;2.90;;;;;;;16.70;100.00;99987.66;6180428;23;20026;-86
2022/11/03 13:34:28;;;;;;;13.68;2.78;;;;;;;16.42;100.00;99981.63;6179885;23;20032;-87
2022/11/03 13:36:55;;;;;;;9.77;2.80;;;;;;;16.51;100.00;99974.50;6216031;23;20013;-87
2022/11/03 13:39:32;;;;;;;9.95;2.85;;;;;;;16.54;100.00;99961.31;6218559;23;20063;-87
2022/11/03 13:42:02;;;;;;;12.85;3.22;;;;;;;16.39;100.00;99943.72;6218566;23;20021;-87
2022/11/03 13:44:38;;;;;;;11.45;2.60;;;;;;;16.40;100.00;99936.31;6181386;23;20083;-87
2022/11/03 13:47:17;;;;;;;17.30;3.00;;;;;;;16.51;100.00;99947.03;6183956;23;20059;-88
2022/11/03 13:49:44;;;;;;;8.52;2.80;;;;;;;16.74;100.00;99947.56;6181210;23;20031;-87
2022/11/03 13:52:23;;;;;;;18.65;3.22;;;;;;;16.60;100.00;99949.25;6184405;23;20013;-87
2022/11/03 13:54:51;;;;;;;11.88;2.67;;;;;;;16.64;100.00;99944.81;6182513;23;20043;-87
2022/11/03 13:57:23;;;;;;;9.57;2.45;;;;;;;16.57;100.00;99938.78;6218050;23;20048;-87
2022/11/03 14:00:00;;;;;;;12.15;3.20;;;;;;;16.57;100.00;99945.09;6182941;23;20024;-87
2022/11/03 14:02:32;;;;;;;9.23;2.75;;;;;;;16.31;100.00;99949.75;6217868;23;20028;-89
2022/11/03 14:05:06;;;;;;;12.60;3.13;;;;;;;16.14;100.00;99925.31;6183481;23;20032;-86
2022/11/03 14:07:35;;;;;;;11.07;2.53;;;;;;;16.40;100.00;99909.66;6218039;23;20306;-87
2022/11/03 14:10:32;;;;;;;9.98;2.70;;;;;;;16.25;100.00;99904.19;6213689;23;20020;-90
2022/11/03 14:13:08;;;;;;;12.02;3.50;;;;;;;16.34;100.00;99899.78;6220192;23;20036;-87
2022/11/03 14:15:38;;;;;;;8.52;2.70;;;;;;;16.25;100.00;99905.00;6219730;23;20036;-86
2022/11/03 14:18:10;;;;;;;12.82;3.05;;;;;;;16.10;100.00;99897.59;6183277;23;20067;-86
2022/11/03 14:20:37;;;;;;;14.60;3.03;;;;;;;16.17;100.00;99894.59;6220069;23;20032;-86
2022/11/03 14:23:05;;;;;;;11.70;3.22;;;;;;;16.16;100.00;99894.84;6183220;23;20025;-86
2022/11/03 14:25:32;;;;;;;16.45;2.90;;;;;;;16.29;100.00;99891.56;6208736;23;20051;-86
2022/11/03 14:28:07;;;;;;;9.90;2.80;;;;;;;16.12;100.00;99893.75;6180622;23;20024;-86
2022/11/03 14:30:39;;;;;;;8.15;3.03;;;;;;;16.13;100.00;99876.19;6183940;23;20386;-87
2022/11/03 14:33:10;;;;;;;13.65;3.42;;;;;;;16.17;100.00;99866.31;6219867;23;20020;-86
2022/11/03 14:35:41;;;;;;;14.18;3.13;;;;;;;16.17;100.00;99869.03;6182756;23;20047;-86
2022/11/03 14:38:10;;;;;;;13.40;2.58;;;;;;;16.12;100.00;99871.81;6218884;23;20020;-86
2022/11/03 14:43:28;;;;;;;16.58;2.88;;;;;;;16.13;100.00;99877.03;6219668;23;20043;-85
2022/11/03 14:45:57;;;;;;;8.90;2.65;;;;;;;16.10;100.00;99875.63;6217697;23;20089;-86
2022/11/03 14:48:30;;;;;;;14.30;3.25;;;;;;;15.90;100.00;99872.88;6183098;23;20025;-88
2022/11/03 14:50:59;;;;;;;7.78;3.28;;;;;;;16.05;100.00;99870.16;6181915;23;20025;-87
2022/11/03 14:53:32;;;;;;;13.52;2.88;;;;;;;15.80;100.00;99876.41;6181756;23;20040;-87
2022/11/03 14:56:01;;;;;;;7.93;2.40;;;;;;;15.77;100.00;99867.91;6183765;23;20020;-87
2022/11/03 14:58:30;;;;;;;12.00;2.65;;;;;;;15.85;100.00;99846.28;6183007;23;20040;-87
2022/11/03 15:00:59;;;;;;;8.70;3.30;;;;;;;15.55;100.00;99847.00;6207471;23;20048;-86
2022/11/03 15:03:27;;;;;;;10.18;3.08;;;;;;;15.63;100.00;99851.94;6218135;23;20031;-86
2022/11/03 15:05:57;;;;;;;14.27;3.05;;;;;;;15.41;100.00;99848.63;6221556;23;20012;-87
2022/11/03 15:08:32;;;;;;;11.43;3.45;;;;;;;15.46;100.00;99843.94;6184124;23;20024;-86
2022/11/03 15:11:17;;;;;;;9.40;2.97;;;;;;;15.53;100.00;99842.88;6220314;23;20486;-86
2022/11/03 15:13:47;;;;;;;10.43;2.80;;;;;;;15.28;100.00;99848.03;6168520;23;20035;-86
2022/11/03 15:16:18;;;;;;;7.10;2.47;;;;;;;15.43;100.00;99835.47;6183422;23;20024;-88
2022/11/03 15:19:04;;;;;;;10.60;2.53;;;;;;;15.44;100.00;99832.44;6218141;23;20091;-86
2022/11/03 15:21:33;;;;;;;9.13;2.75;;;;;;;15.31;100.00;99830.22;6183316;23;20459;-87
2022/11/03 15:24:02;;;;;;;12.95;3.38;;;;;;;15.46;100.00;99827.50;6218441;23;20021;-86
2022/11/03 15:26:31;;;;;;;10.93;2.85;;;;;;;15.35;100.00;99825.84;6219048;23;20020;-86
2022/11/03 15:29:01;;;;;;;13.25;2.70;;;;;;;15.23;100.00;99823.31;6218867;23;20039;-86
2022/11/03 15:31:28;;;;;;;7.10;2.47;;;;;;;15.15;100.00;99815.66;6182485;23;20028;-87
2022/11/03 15:34:17;;;;;;;11.85;3.45;;;;;;;15.12;100.00;99805.22;6182633;23;20051;-87
2022/11/03 15:36:44;;;;;;;7.40;2.80;;;;;;;15.33;100.00;99810.75;6220411;23;20035;-86
2022/11/03 15:39:16;;;;;;;11.18;3.00;;;;;;;15.27;100.00;99805.25;6180530;23;20082;-87
2022/11/03 15:42:00;;;;;;;5.93;2.30;;;;;;;15.39;100.00;99798.72;6180519;23;20111;-86
2022/11/03 15:44:42;;;;;;;8.90;2.65;;;;;;;15.22;100.00;99788.81;6180467;23;20512;-87
2022/11/03 15:47:12;;;;;;;10.20;3.92;;;;;;;15.00;100.00;99778.06;6219942;23;20024;-86
2022/11/03 15:49:47;;;;;;;12.60;3.15;;;;;;;14.91;100.00;99760.47;6219636;23;20017;-87
2022/11/03 15:52:22;;;;;;;14.52;2.92;;;;;;;14.83;100.00;99758.25;6219289;23;20051;-88
2022/11/03 15:54:54;;;;;;;10.70;3.17;;;;;;;14.86;100.00;99764.03;6219051;23;20017;-86
2022/11/03 15:57:33;;;;;;;10.18;3.30;;;;;;;14.80;100.00;99756.88;6181805;23;20040;-87
2022/11/03 16:00:02;;;;;;;9.38;3.22;;;;;;;15.08;100.00;99749.31;6182065;23;20023;-87
2022/11/03 16:02:32;;;;;;;6.53;2.88;;;;;;;14.82;100.00;99760.19;6208683;23;20029;-88
2022/11/03 16:05:03;;;;;;;8.38;3.33;;;;;;;14.96;100.00;99744.09;6181578;23;20655;-88
2022/11/03 16:07:32;;;;;;;9.98;3.08;;;;;;;14.80;100.00;99750.59;6182931;23;20042;-87
2022/11/03 16:10:08;;;;;;;12.73;3.78;;;;;;;15.00;100.00;99747.94;6182261;23;20024;-87
2022/11/03 16:12:50;;;;;;;15.32;6.25;;;;;;;14.61;100.00;99744.75;6216131;23;20023;-87
2022/11/03 16:15:18;;;;;;;17.15;7.00;;;;;;;14.83;100.00;99744.56;6179187;23;20518;-86
2022/11/03 16:17:47;;;;;;;7.00;3.50;;;;;;;14.70;100.00;99737.66;6206983;23;20124;-87
2022/11/03 16:20:28;;;;;;;;;;;;;;;;;;;;;
2022/11/03 16:23:03;;;;;;;11.02;4.57;;;;;;;14.88;100.00;99728.97;6180959;23;20044;-88
2022/11/03 16:25:39;;;;;;;11.85;3.88;;;;;;;14.68;100.00;99723.41;6216931;23;20021;-89
2022/11/03 16:28:09;;;;;;;10.20;4.15;;;;;;;14.91;100.00;99721.31;6178322;23;20071;-87
2022/11/03 16:30:49;;;;;;;11.50;3.60;;;;;;;14.71;100.00;99714.69;6179459;23;20020;-87
2022/11/03 16:33:38;;;;;;;11.23;4.32;;;;;;;14.70;100.00;99720.41;6213779;23;20048;-87
2022/11/03 16:36:22;;;;;;;11.27;4.65;;;;;;;14.56;100.00;99717.38;6218166;23;20143;-88
2022/11/03 16:39:03;;;;;;;8.07;3.78;;;;;;;14.70;100.00;99732.19;6217347;23;20470;-88
2022/11/03 16:41:35;;;;;;;7.75;3.58;;;;;;;14.46;100.00;99726.31;6179667;23;20099;-87
2022/11/03 16:44:07;;;;;;;12.80;4.03;;;;;;;14.66;100.00;99722.88;6181337;23;20020;-89
2022/11/03 16:46:43;;;;;;;13.20;4.20;;;;;;;14.82;100.00;99727.31;6217886;23;20088;-88
2022/11/03 16:49:29;;;;;;;11.55;4.53;;;;;;;14.36;100.00;99732.53;6216714;23;20016;-87
2022/11/03 16:52:00;;;;;;;13.55;5.05;;;;;;;14.60;100.00;99722.03;6217824;23;20092;-88
2022/11/03 16:54:38;;;;;;;11.07;4.43;;;;;;;14.51;100.00;99717.28;6218738;23;20039;-87
2022/11/03 16:57:15;;;;;;;14.77;5.13;;;;;;;14.31;100.00;99710.63;6183142;23;20095;-88
2022/11/03 16:59:57;;;;;;;19.00;5.40;;;;;;;14.64;100.00;99705.88;6181243;23;20020;-87
2022/11/03 17:02:29;;;;;;;13.35;5.38;;;;;;;14.47;100.00;99704.16;6206397;23;20021;-88
2022/11/03 17:05:17;;;;;;;13.48;4.47;;;;;;;14.19;100.00;99704.53;6178576;23;20099;-89
2022/11/03 17:08:31;;;;;;;9.23;4.22;;;;;;;14.28;100.00;99709.25;6179961;23;20024;-87
2022/11/03 17:11:03;;;;;;;16.80;5.47;;;;;;;14.26;100.00;99705.97;6213370;23;20017;-87
2022/11/03 17:13:33;;;;;;;14.32;5.50;;;;;;;14.18;100.00;99705.66;6217996;23;20031;-85
2022/11/03 17:16:07;;;;;;;15.63;5.32;;;;;;;14.16;100.00;99699.63;6183734;23;20051;-85
2022/11/03 17:18:41;;;;;;;14.57;5.30;;;;;;;14.06;100.00;99695.72;6181313;23;20305;-86
2022/11/03 17:21:10;;;;;;;21.40;7.88;;;;;;;14.14;100.00;99699.06;6183096;23;20022;-86
2022/11/03 17:24:02;;;;;;;;;;;;;;;;;;;;;
2022/11/03 17:26:50;;;;;;;;;;;;;;;;;;;;;
2022/11/03 17:29:36;;;;;;;15.80;6.05;;;;;;;14.31;100.00;99696.13;6209127;23;20047;-86
2022/11/03 17:32:19;;;;;;;18.40;6.10;;;;;;;14.06;100.00;99695.72;6183005;23;20450;-87
2022/11/03 17:35:07;;;;;;;20.35;6.47;;;;;;;14.05;100.00;99691.34;6218281;23;20012;-89
2022/11/03 17:37:51;;;;;;;14.23;5.60;;;;;;;14.01;100.00;99687.50;6218829;23;20017;-86
2022/11/03 17:40:50;;;;;;;;;;;;;;;;;;;;;
2022/11/03 17:43:21;;;;;;;11.00;5.15;;;;;;;13.95;100.00;99682.25;6207433;23;20024;-86
2022/11/03 17:45:48;;;;;;;17.60;7.15;;;;;;;14.20;100.00;99678.84;6179048;23;20025;-87
2022/11/03 17:48:16;;;;;;;14.38;6.15;;;;;;;14.13;100.00;99675.50;6206707;23;20529;-86
2022/11/03 17:51:14;;;;;;;;;;;;;;;;;;;;;
2022/11/03 17:53:57;;;;;;;19.75;7.03;;;;;;;14.04;100.00;99659.59;6211454;23;20012;-88
2022/11/03 17:56:30;;;;;;;12.98;7.45;;;;;;;14.20;100.00;99656.97;6217179;23;20024;-86
2022/11/03 17:59:10;;;;;;;15.27;7.85;;;;;;;14.51;100.00;99657.91;6182186;23;20458;-87
2022/11/03 18:01:50;;;;;;;15.65;6.65;;;;;;;14.42;100.00;99656.78;6217198;23;20016;-87
2022/11/03 18:04:21;;;;;;;14.93;6.28;;;;;;;14.16;100.00;99650.38;6217151;23;20017;-87
2022/11/03 18:06:51;;;;;;;15.23;6.45;;;;;;;14.09;100.00;99647.88;6180631;23;20099;-85
2022/11/03 18:09:20;;;;;;;12.80;6.70;;;;;;;14.21;100.00;99650.38;6215886;23;20025;-87
2022/11/03 18:14:56;;;;;;;18.00;8.15;;;;;;;14.34;100.00;99647.16;6215792;23;20139;-88
2022/11/03 18:17:28;;;;;;;14.88;7.57;;;;;;;14.25;100.00;99638.63;6182925;23;20055;-87
2022/11/03 18:20:14;;;;;;;14.15;6.75;;;;;;;14.15;100.00;99635.03;6219033;23;20023;-89
2022/11/03 18:23:07;;;;;;;;;;;;;;;;;;;;;
2022/11/03 18:25:43;;;;;;;16.23;8.07;;;;;;;14.18;100.00;99646.28;6215461;23;20017;-87
2022/11/03 18:28:21;;;;;;;14.55;8.65;;;;;;;14.23;100.00;99642.75;6218131;23;20008;-87
2022/11/03 18:30:52;;;;;;;14.32;7.80;;;;;;;14.03;100.00;99636.09;6181075;23;20020;-86
2022/11/03 18:33:32;;;;;;;19.63;9.20;;;;;;;14.04;100.00;99637.72;6217955;23;20013;-88
2022/11/03 18:36:11;;;;;;;14.05;8.07;;;;;;;14.15;100.00;99644.06;6182785;23;20107;-87
2022/11/03 18:38:55;;;;;;;21.50;8.98;;;;;;;14.19;100.00;99644.34;6219784;23;20017;-88
2022/11/03 18:41:50;;;;;;;14.43;8.30;;;;;;;14.10;100.00;99638.56;6218373;23;20111;-88
2022/11/03 18:44:31;;;;;;;21.60;11.10;;;;;;;14.19;100.00;99630.69;6220546;23;20040;-88
2022/11/03 18:47:25;;;;;;;16.40;10.50;;;;;;;14.17;100.00;99625.47;6180090;23;20020;-88
2022/11/03 18:49:57;;;;;;;20.77;10.07;;;;;;;14.10;100.00;99622.16;6178199;23;20043;-89
2022/11/03 18:52:30;;;;;;;19.45;8.80;;;;;;;13.94;100.00;99621.28;6182918;23;20021;-89
2022/11/03 18:55:05;;;;;;;19.27;10.75;;;;;;;13.82;100.00;99617.94;6181068;23;20094;-89
2022/11/03 18:57:36;;;;;;;23.67;11.25;;;;;;;13.78;100.00;99622.28;6181811;23;20027;-88
2022/11/03 19:00:26;;;;;;;20.05;10.98;;;;;;;13.95;100.00;99625.66;6219083;23;20016;-88
2022/11/03 19:02:57;;;;;;;18.83;9.32;;;;;;;13.64;100.00;99627.38;6183364;23;20463;-89
2022/11/03 19:05:56;;;;;;;19.60;11.68;;;;;;;13.81;100.00;99619.84;6177587;23;20051;-88
2022/11/03 19:08:58;;;;;;;24.65;11.80;;;;;;;13.93;100.00;99618.81;6208267;23;20013;-88
2022/11/03 19:12:02;;;;;;;;;;;;;;;;;;;;;
2022/11/03 19:15:19;;;;;;;23.80;13.05;;;;;;;14.18;100.00;99613.44;6179593;23;20025;-88
2022/11/03 19:21:45;;;;;;;16.83;10.18;;;;;;;13.60;100.00;99594.28;6202897;23;20418;-88
2022/11/03 19:25:20;;;;;;;;;;;;;;;;;;;;;
2022/11/03 19:28:24;;;;;;;17.70;11.18;;;;;;;14.03;100.00;99584.13;6203206;23;20066;-87
2022/11/03 19:31:17;;;;;;;20.30;10.50;;;;;;;13.80;100.00;99579.91;6217138;23;20435;-87
2022/11/03 19:34:20;;;;;;;18.70;9.90;;;;;;;14.01;100.00;99575.34;6217799;23;20017;-87
2022/11/03 19:40:07;;;;;;;21.00;10.05;;;;;;;13.98;100.00;99572.31;6204620;23;20016;-87
2022/11/03 19:42:43;;;;;;;14.50;9.38;;;;;;;13.94;100.00;99561.13;6181174;23;20028;-87
2022/11/03 19:45:28;;;;;;;17.35;10.55;;;;;;;13.85;100.00;99558.03;6181597;23;20027;-86
2022/11/03 19:48:31;;;;;;;13.57;9.63;;;;;;;13.80;100.00;99559.94;6216190;23;20078;-88
2022/11/03 19:51:12;;;;;;;15.05;9.80;;;;;;;13.87;100.00;99568.72;6181533;23;20601;-87
2022/11/03 19:54:10;;;;;;;;;;;;;;;;;;;;;
2022/11/03 19:56:57;;;;;;;15.75;9.98;;;;;;;13.80;100.00;99565.41;6182615;23;20593;-87
2022/11/03 20:00:14;;;;;;;14.23;9.40;;;;;;;14.04;100.00;99550.19;6206311;23;20060;-87
2022/11/03 20:03:09;;;;;;;16.88;8.52;;;;;;;13.53;100.00;99549.97;6207739;23;20024;-88
2022/11/03 20:06:01;;;;;;;12.45;9.45;;;;;;;13.76;100.00;99545.16;6219109;23;20015;-87
2022/11/03 20:08:33;;;;;;;16.45;8.43;;;;;;;13.87;100.00;99541.38;6217666;23;20024;-87
2022/11/03 20:11:11;;;;;;;13.15;9.25;;;;;;;13.55;100.00;99541.50;6216161;23;20012;-88
2022/11/03 20:14:07;;;;;;;11.75;8.98;;;;;;;13.66;100.00;99549.50;6182207;23;20017;-88
2022/11/03 20:16:53;;;;;;;;;;;;;;;;;;;;;
2022/11/03 20:19:44;;;;;;;9.95;7.43;;;;;;;13.87;100.00;99553.13;6180741;23;20016;-87
2022/11/03 20:22:47;;;;;;;11.82;7.90;;;;;;;14.01;100.00;99566.34;6214843;23;20032;-87
2022/11/03 20:25:22;;;;;;;10.98;8.07;;;;;;;13.61;100.00;99563.13;6217360;23;20024;-88
2022/11/03 20:28:19;;;;;;;11.07;8.57;;;;;;;13.63;100.00;99549.19;6182074;23;20040;-87